createdAt,value
2019-04-22T00:01:21.542Z,9.20
2019-04-22T00:03:53.103Z,9.30
2019-04-22T00:06:39.212Z,9.20
2019-04-22T00:09:12.107Z,9.10
2019-04-22T00:11:48.578Z,9.10
2019-04-22T00:14:06.760Z,9.00
2019-04-22T00:17:00.234Z,9.10
2019-04-22T00:21:46.194Z,8.80
2019-04-22T00:24:17.068Z,8.90
2019-04-22T00:26:50.311Z,8.90
2019-04-22T00:29:39.505Z,8.90
2019-04-22T00:32:00.289Z,8.90
2019-04-22T00:34:27.021Z,8.70
2019-04-22T00:37:01.027Z,8.90
2019-04-22T00:39:37.183Z,8.80
2019-04-22T00:42:07.759Z,8.70
2019-04-22T00:44:41.614Z,8.80
2019-04-22T00:47:09.324Z,8.70
2019-04-22T00:50:06.367Z,8.70
2019-04-22T00:52:10.823Z,8.70
2019-04-22T00:54:37.427Z,8.60
2019-04-22T00:57:09.166Z,8.50
2019-04-22T00:59:40.414Z,8.40
2019-04-22T01:02:13.356Z,8.50
2019-04-22T01:04:51.146Z,8.40
2019-04-22T01:07:13.302Z,8.30
2019-04-22T01:09:47.797Z,8.10
2019-04-22T01:12:16.710Z,8.10
2019-04-22T01:14:41.736Z,8.00
2019-04-22T01:17:11.627Z,8.00
2019-04-22T01:19:52.328Z,7.90
2019-04-22T01:22:17.434Z,7.90
2019-04-22T01:24:44.580Z,7.90
2019-04-22T01:27:12.944Z,7.80
2019-04-22T01:29:44.079Z,7.90
2019-04-22T01:32:00.368Z,8.00
2019-04-22T01:34:46.054Z,8.00
2019-04-22T01:37:20.295Z,7.90
2019-04-22T01:39:59.082Z,7.80
2019-04-22T01:42:24.423Z,7.90
2019-04-22T01:44:58.173Z,7.90
2019-04-22T01:47:34.398Z,7.60
2019-04-22T01:49:59.627Z,7.60
2019-04-22T01:52:29.428Z,7.60
2019-04-22T01:57:32.053Z,7.60
2019-04-22T01:59:57.615Z,7.60
2019-04-22T02:02:35.414Z,7.60
2019-04-22T02:05:17.683Z,7.60
2019-04-22T02:07:34.421Z,7.80
2019-04-22T02:10:04.030Z,7.70
2019-04-22T02:12:42.615Z,7.70
2019-04-22T02:15:08.033Z,7.70
2019-04-22T02:17:45.690Z,7.70
2019-04-22T02:20:13.662Z,7.70
2019-04-22T02:23:40.285Z,7.60
2019-04-22T02:25:56.388Z,7.60
2019-04-22T02:28:28.281Z,7.50
2019-04-22T02:31:16.901Z,7.50
2019-04-22T02:34:01.549Z,7.50
2019-04-22T02:36:19.744Z,7.40
2019-04-22T02:38:46.756Z,7.40
2019-04-22T02:43:49.232Z,7.40
2019-04-22T02:46:29.467Z,7.30
2019-04-22T02:54:00.518Z,7.00
2019-04-22T02:56:17.349Z,6.90
2019-04-22T02:58:47.638Z,6.80
2019-04-22T03:13:47.201Z,6.70
2019-04-22T03:16:17.502Z,6.80
2019-04-22T03:18:47.222Z,6.70
2019-04-22T03:21:10.531Z,6.70
2019-04-22T03:24:09.008Z,6.60
2019-04-22T03:32:33.228Z,6.30
2019-04-22T03:42:07.477Z,6.30
2019-04-22T03:44:38.463Z,6.40
2019-04-22T03:49:48.202Z,6.50
2019-04-22T03:52:16.321Z,6.40
2019-04-22T03:54:47.706Z,6.40
2019-04-22T04:02:24.058Z,6.20
2019-04-22T04:07:32.453Z,6.30
2019-04-22T04:12:30.057Z,6.30
2019-04-22T04:17:23.900Z,6.30
2019-04-22T04:20:07.974Z,6.20
2019-04-22T04:22:33.917Z,6.10
2019-04-22T04:25:24.955Z,6.00
2019-04-22T04:27:43.551Z,6.00
2019-04-22T04:30:06.303Z,5.90
2019-04-22T04:42:32.884Z,6.10
2019-04-22T04:45:11.068Z,6.10
2019-04-22T04:47:41.350Z,6.20
2019-04-22T04:50:05.861Z,6.30
2019-04-22T04:52:39.831Z,6.40
2019-04-22T04:55:11.916Z,6.50
2019-04-22T05:02:40.024Z,6.60
2019-04-22T05:10:31.398Z,6.60
2019-04-22T05:12:45.648Z,6.70
2019-04-22T05:15:09.019Z,6.70
2019-04-22T05:17:35.809Z,6.80
2019-04-22T05:20:05.278Z,6.80
2019-04-22T05:25:06.984Z,7.00
2019-04-22T05:27:34.958Z,7.00
2019-04-22T05:30:21.044Z,7.00
2019-04-22T05:35:00.033Z,7.10
2019-04-22T05:37:35.639Z,7.30
2019-04-22T05:40:14.875Z,7.40
2019-04-22T05:42:29.480Z,7.50
2019-04-22T05:45:04.622Z,7.60
2019-04-22T05:47:34.071Z,7.70
2019-04-22T05:50:04.434Z,7.80
2019-04-22T05:52:32.361Z,7.90
2019-04-22T05:55:08.216Z,8.00
2019-04-22T05:57:35.657Z,8.10
2019-04-22T06:00:17.865Z,8.10
2019-04-22T06:02:48.738Z,8.20
2019-04-22T06:05:12.012Z,8.30
2019-04-22T06:07:38.511Z,8.40
2019-04-22T06:10:24.409Z,8.50
2019-04-22T06:12:38.910Z,8.60
2019-04-22T06:15:12.209Z,8.70
2019-04-22T06:17:57.509Z,8.90
2019-04-22T06:20:15.945Z,9.00
2019-04-22T06:22:50.437Z,9.10
2019-04-22T06:25:30.008Z,9.30
2019-04-22T06:27:58.208Z,9.40
2019-04-22T06:30:20.662Z,9.70
2019-04-22T06:32:47.255Z,9.90
2019-04-22T06:35:29.991Z,9.90
2019-04-22T06:38:09.945Z,10.20
2019-04-22T06:40:29.504Z,10.50
2019-04-22T06:42:57.642Z,10.50
2019-04-22T06:45:24.881Z,10.40
2019-04-22T06:48:02.275Z,10.40
2019-04-22T06:50:32.779Z,10.50
2019-04-22T06:52:56.672Z,10.50
2019-04-22T06:55:33.305Z,10.70
2019-04-22T06:57:59.915Z,11.30
2019-04-22T07:03:26.832Z,11.40
2019-04-22T07:05:27.572Z,11.40
2019-04-22T07:08:05.638Z,11.60
2019-04-22T07:10:35.054Z,11.70
2019-04-22T07:13:01.573Z,11.80
2019-04-22T07:15:50.334Z,11.80
2019-04-22T07:18:04.298Z,12.10
2019-04-22T07:20:42.223Z,12.30
2019-04-22T07:23:09.637Z,12.50
2019-04-22T07:25:34.822Z,12.50
2019-04-22T07:28:06.374Z,12.50
2019-04-22T07:30:40.974Z,12.70
2019-04-22T07:35:47.584Z,13.40
2019-04-22T07:38:14.336Z,13.60
2019-04-22T07:40:43.316Z,13.70
2019-04-22T07:43:14.440Z,13.80
2019-04-22T07:45:42.537Z,13.90
2019-04-22T07:48:26.507Z,13.90
2019-04-22T07:53:13.251Z,14.40
2019-04-22T07:55:46.777Z,14.50
2019-04-22T07:58:18.604Z,14.60
2019-04-22T08:00:52.287Z,14.90
2019-04-22T08:03:18.452Z,15.20
2019-04-22T08:05:58.747Z,15.30
2019-04-22T08:08:26.178Z,15.50
2019-04-22T08:10:55.459Z,15.40
2019-04-22T08:13:17.042Z,15.50
2019-04-22T08:15:53.692Z,15.50
2019-04-22T08:18:21.878Z,15.60
2019-04-22T08:20:56.767Z,15.60
2019-04-22T08:23:28.817Z,16.00
2019-04-22T08:26:05.548Z,16.30
2019-04-22T08:28:27.228Z,16.60
2019-04-22T08:30:53.637Z,16.60
2019-04-22T08:33:29.485Z,16.00
2019-04-22T08:36:09.084Z,16.00
2019-04-22T08:38:48.311Z,16.30
2019-04-22T08:43:57.559Z,16.50
2019-04-22T08:46:34.111Z,16.50
2019-04-22T08:48:59.025Z,16.50
2019-04-22T08:51:24.996Z,16.70
2019-04-22T08:53:59.865Z,17.30
2019-04-22T08:59:07.021Z,19.70
2019-04-22T09:01:31.450Z,19.20
2019-04-22T09:04:04.044Z,19.50
2019-04-22T09:06:39.879Z,19.50
2019-04-22T09:11:44.923Z,19.90
2019-04-22T09:14:01.620Z,19.80
2019-04-22T09:16:37.315Z,19.50
2019-04-22T09:19:08.896Z,19.70
2019-04-22T09:26:38.857Z,20.70
2019-04-22T09:29:17.972Z,20.10
2019-04-22T09:31:35.919Z,19.80
2019-04-22T09:34:08.249Z,20.50
2019-04-22T09:36:40.745Z,20.90
2019-04-22T09:39:12.694Z,21.80
2019-04-22T09:41:43.690Z,21.30
2019-04-22T09:44:08.224Z,20.90
2019-04-22T09:46:41.231Z,21.60
2019-04-22T09:51:44.872Z,21.70
2019-04-22T09:54:21.699Z,22.20
2019-04-22T09:56:46.940Z,22.20
2019-04-22T09:59:13.708Z,21.50
2019-04-22T10:02:02.351Z,21.80
2019-04-22T10:04:12.710Z,21.00
2019-04-22T10:06:42.321Z,21.70
2019-04-22T10:09:34.723Z,21.90
2019-04-22T10:12:02.721Z,22.40
2019-04-22T10:14:19.020Z,21.60
2019-04-22T10:16:47.893Z,22.10
2019-04-22T10:19:23.565Z,21.30
2019-04-22T10:24:19.130Z,20.70
2019-04-22T10:26:54.983Z,20.70
2019-04-22T10:29:24.620Z,21.10
2019-04-22T10:31:57.190Z,21.40
2019-04-22T10:34:14.142Z,21.60
2019-04-22T10:36:31.247Z,21.00
2019-04-22T10:39:00.248Z,20.60
2019-04-22T10:41:30.667Z,20.70
2019-04-22T10:43:59.559Z,21.30
2019-04-22T10:46:28.452Z,21.50
2019-04-22T10:48:57.977Z,21.80
2019-04-22T10:51:28.550Z,20.70
2019-04-22T10:53:57.938Z,21.00
2019-04-22T10:56:27.280Z,20.80
2019-04-22T10:58:56.544Z,20.90
2019-04-22T11:01:25.727Z,21.30
2019-04-22T11:03:55.210Z,20.90
2019-04-22T11:06:25.270Z,20.80
2019-04-22T11:08:58.374Z,20.80
2019-04-22T11:11:34.720Z,20.90
2019-04-22T11:13:56.105Z,20.90
2019-04-22T11:16:25.681Z,21.70
2019-04-22T11:18:55.861Z,21.70
2019-04-22T11:21:25.420Z,21.70
2019-04-22T11:23:54.645Z,22.30
2019-04-22T11:26:23.945Z,22.30
2019-04-22T11:28:53.968Z,21.80
2019-04-22T11:31:24.128Z,21.10
2019-04-22T11:33:54.339Z,21.70
2019-04-22T11:36:25.635Z,22.80
2019-04-22T11:39:00.096Z,22.60
2019-04-22T11:41:25.621Z,22.40
2019-04-22T11:43:54.659Z,20.90
2019-04-22T11:46:25.275Z,21.60
2019-04-22T11:48:55.920Z,21.60
2019-04-22T11:51:25.351Z,22.00
2019-04-22T11:53:54.787Z,21.00
2019-04-22T11:56:25.064Z,21.70
2019-04-22T11:58:55.172Z,22.20
2019-04-22T12:01:24.681Z,22.40
2019-04-22T12:03:53.906Z,21.80
2019-04-22T12:06:24.018Z,21.70
2019-04-22T12:08:54.133Z,20.70
2019-04-22T12:11:23.343Z,21.70
2019-04-22T12:13:53.808Z,21.70
2019-04-22T12:16:23.387Z,22.10
2019-04-22T12:18:53.471Z,21.50
2019-04-22T12:21:23.372Z,22.10
2019-04-22T12:23:56.899Z,20.70
2019-04-22T12:26:30.427Z,19.60
2019-04-22T12:28:59.659Z,19.90
2019-04-22T12:31:29.330Z,21.30
2019-04-22T12:33:59.289Z,21.40
2019-04-22T12:36:28.794Z,21.00
2019-04-22T12:38:57.998Z,20.20
2019-04-22T12:41:27.799Z,20.30
2019-04-22T12:43:56.762Z,21.10
2019-04-22T12:46:26.182Z,21.50
2019-04-22T12:48:58.160Z,21.40
2019-04-22T12:51:27.342Z,20.90
2019-04-22T12:53:57.210Z,20.00
2019-04-22T12:56:27.809Z,20.10
2019-04-22T12:58:57.179Z,19.60
2019-04-22T13:01:26.830Z,19.70
2019-04-22T13:04:02.071Z,19.40
2019-04-22T13:06:27.920Z,19.70
2019-04-22T13:08:57.109Z,19.70
2019-04-22T13:11:30.842Z,19.30
2019-04-22T13:13:56.836Z,19.60
2019-04-22T13:16:26.949Z,20.80
2019-04-22T13:19:00.147Z,19.70
2019-04-22T13:21:26.969Z,19.70
2019-04-22T13:23:57.124Z,19.10
2019-04-22T13:26:27.183Z,19.30
2019-04-22T13:28:56.937Z,19.50
2019-04-22T13:31:26.824Z,19.30
2019-04-22T13:33:59.700Z,19.40
2019-04-22T13:36:28.305Z,18.60
2019-04-22T13:38:56.962Z,19.10
2019-04-22T13:41:33.939Z,19.10
2019-04-22T13:43:58.057Z,18.30
2019-04-22T13:46:31.149Z,18.70
2019-04-22T13:49:24.001Z,18.80
2019-04-22T13:56:49.123Z,18.90
2019-04-22T13:59:12.218Z,19.40
2019-04-22T14:01:48.361Z,19.40
2019-04-22T14:04:24.692Z,19.20
2019-04-22T14:06:54.623Z,19.30
2019-04-22T14:09:24.422Z,19.30
2019-04-22T14:11:58.597Z,19.40
2019-04-22T14:14:24.196Z,18.70
2019-04-22T14:16:53.427Z,18.20
2019-04-22T14:19:23.602Z,18.60
2019-04-22T14:21:53.808Z,18.80
2019-04-22T14:24:23.821Z,18.50
2019-04-22T14:27:08.781Z,18.00
2019-04-22T14:29:23.892Z,18.00
2019-04-22T14:34:24.270Z,17.90
2019-04-22T14:36:53.341Z,18.00
2019-04-22T14:39:22.145Z,18.20
2019-04-22T14:42:12.479Z,18.00
2019-04-22T14:44:03.614Z,18.40
2019-04-22T14:49:48.183Z,17.70
2019-04-22T14:52:15.317Z,18.00
2019-04-22T14:54:38.734Z,17.70
2019-04-22T14:56:56.326Z,17.90
2019-04-22T14:59:25.197Z,18.00
2019-04-22T15:01:54.283Z,17.90
2019-04-22T15:04:23.468Z,17.70
2019-04-22T15:06:52.884Z,17.70
2019-04-22T15:09:21.886Z,17.50
2019-04-22T15:12:04.898Z,17.10
2019-04-22T15:14:21.647Z,17.10
2019-04-22T15:17:13.127Z,17.40
2019-04-22T15:19:51.943Z,17.60
2019-04-22T15:22:21.010Z,17.80
2019-04-22T15:24:50.255Z,17.90
2019-04-22T15:27:20.330Z,17.70
2019-04-22T15:29:49.483Z,17.50
2019-04-22T15:32:18.411Z,17.00
2019-04-22T15:34:47.298Z,17.00
2019-04-22T15:37:16.339Z,17.50
2019-04-22T15:39:45.787Z,17.20
2019-04-22T15:42:24.005Z,17.10
2019-04-22T15:44:46.251Z,17.20
2019-04-22T15:47:15.594Z,16.80
2019-04-22T15:49:45.898Z,16.80
2019-04-22T15:52:16.538Z,16.70
2019-04-22T15:54:49.956Z,16.60
2019-04-22T15:57:17.196Z,16.40
2019-04-22T16:00:05.362Z,16.40
2019-04-22T16:02:19.390Z,16.20
2019-04-22T16:04:50.270Z,16.50
2019-04-22T16:07:22.434Z,16.40
2019-04-22T16:09:50.162Z,16.20
2019-04-22T16:12:27.937Z,15.80
2019-04-22T16:14:53.519Z,15.70
2019-04-22T16:17:20.365Z,15.60
2019-04-22T16:19:49.110Z,15.40
2019-04-22T16:22:20.638Z,15.50
2019-04-22T16:25:02.650Z,15.50
2019-04-22T16:27:32.173Z,15.50
2019-04-22T16:30:01.413Z,15.40
2019-04-22T16:32:31.931Z,15.30
2019-04-22T16:35:00.908Z,15.30
2019-04-22T16:37:30.580Z,15.20
2019-04-22T16:40:00.869Z,15.10
2019-04-22T16:42:37.851Z,15.00
2019-04-22T16:45:01.699Z,14.90
2019-04-22T16:47:31.338Z,14.70
2019-04-22T16:50:01.829Z,14.80
2019-04-22T16:52:32.057Z,14.80
2019-04-22T16:55:01.123Z,14.80
2019-04-22T16:57:30.113Z,14.80
2019-04-22T17:00:00.476Z,14.90
2019-04-22T17:02:56.134Z,14.70
2019-04-22T17:05:49.902Z,14.70
2019-04-22T17:08:19.076Z,14.70
2019-04-22T17:10:47.860Z,14.70
2019-04-22T17:13:20.920Z,14.60
2019-04-22T17:15:47.333Z,14.50
2019-04-22T17:18:17.212Z,14.50
2019-04-22T17:20:46.518Z,14.50
2019-04-22T17:23:15.922Z,14.40
2019-04-22T17:25:44.928Z,14.40
2019-04-22T17:28:13.660Z,14.30
2019-04-22T17:30:43.804Z,14.30
2019-04-22T17:33:12.874Z,14.30
2019-04-22T17:35:44.621Z,14.30
2019-04-22T17:38:20.989Z,14.20
2019-04-22T17:40:56.788Z,14.20
2019-04-22T17:43:44.166Z,14.10
2019-04-22T17:46:30.465Z,14.10
2019-04-22T17:49:15.403Z,14.10
2019-04-22T17:52:04.555Z,14.00
2019-04-22T17:54:40.725Z,14.00
2019-04-22T17:57:04.969Z,13.90
2019-04-22T17:59:38.170Z,14.00
2019-04-22T18:02:02.580Z,14.00
2019-04-22T18:04:19.910Z,13.90
2019-04-22T18:07:18.370Z,13.80
2019-04-22T18:10:14.114Z,13.70
2019-04-22T18:12:19.266Z,13.60
2019-04-22T18:17:17.304Z,13.50
2019-04-22T18:19:40.227Z,13.50
2019-04-22T18:22:09.390Z,13.50
2019-04-22T18:24:36.497Z,13.40
2019-04-22T18:27:31.874Z,13.30
2019-04-22T18:29:48.558Z,13.30
2019-04-22T18:32:09.910Z,13.30
2019-04-22T18:34:39.892Z,13.20
2019-04-22T18:37:18.436Z,13.10
2019-04-22T18:39:52.613Z,13.10
2019-04-22T18:42:20.482Z,13.00
2019-04-22T18:44:55.808Z,13.00
2019-04-22T18:47:18.641Z,13.00
2019-04-22T18:49:53.602Z,13.00
2019-04-22T18:52:43.594Z,12.90
2019-04-22T18:55:26.740Z,12.90
2019-04-22T18:57:59.094Z,12.90
2019-04-22T19:00:18.022Z,12.90
2019-04-22T19:02:54.209Z,12.90
2019-04-22T19:05:30.102Z,12.90
2019-04-22T19:08:17.902Z,13.00
2019-04-22T19:10:51.813Z,12.90
2019-04-22T19:13:50.102Z,12.80
2019-04-22T19:16:15.902Z,12.80
2019-04-22T19:21:03.070Z,12.70
2019-04-22T19:23:27.811Z,12.70
2019-04-22T19:25:59.167Z,12.60
2019-04-22T19:28:33.893Z,12.60
2019-04-22T19:31:10.853Z,12.50
2019-04-22T19:33:35.268Z,12.40
2019-04-22T19:36:04.935Z,12.40
2019-04-22T19:38:25.643Z,12.40
2019-04-22T19:43:32.437Z,12.30
2019-04-22T19:46:02.050Z,12.30
2019-04-22T19:48:42.618Z,12.20
2019-04-22T19:51:13.998Z,12.20
2019-04-22T19:53:42.226Z,12.20
2019-04-22T19:56:03.517Z,12.10
2019-04-22T19:58:37.342Z,12.20
2019-04-22T20:01:31.986Z,12.10
2019-04-22T20:04:26.599Z,12.10
2019-04-22T20:07:06.705Z,12.00
2019-04-22T20:09:46.746Z,12.00
2019-04-22T20:12:04.165Z,12.00
2019-04-22T20:14:40.261Z,11.90
2019-04-22T20:17:00.464Z,11.90
2019-04-22T20:19:46.233Z,11.90
2019-04-22T20:22:09.811Z,11.90
2019-04-22T20:24:27.717Z,11.80
2019-04-22T20:27:15.128Z,11.70
2019-04-22T20:29:46.464Z,11.70
2019-04-22T20:32:13.716Z,11.70
2019-04-22T20:34:47.614Z,11.60
2019-04-22T20:37:18.003Z,11.60
2019-04-22T20:40:00.502Z,11.50
2019-04-22T20:42:33.649Z,11.50
2019-04-22T20:45:03.928Z,11.40
2019-04-22T20:47:16.573Z,11.50
2019-04-22T20:49:47.452Z,11.50
2019-04-22T20:52:26.409Z,11.30
2019-04-22T20:54:44.957Z,11.20
2019-04-22T20:57:15.821Z,11.20
2019-04-22T20:59:49.842Z,11.00
2019-04-22T21:02:16.509Z,11.00
2019-04-22T21:04:41.471Z,10.90
2019-04-22T21:07:19.884Z,10.90
2019-04-22T21:09:49.002Z,10.90
2019-04-22T21:12:17.698Z,10.80
2019-04-22T21:15:00.262Z,10.90
2019-04-22T21:17:22.721Z,10.90
2019-04-22T21:20:00.707Z,10.80
2019-04-22T21:22:29.208Z,10.90
2019-04-22T21:24:52.238Z,10.80
2019-04-22T21:27:37.106Z,10.80
2019-04-22T21:29:52.164Z,10.70
2019-04-22T21:32:31.260Z,10.70
2019-04-22T21:35:21.538Z,10.60
2019-04-22T21:37:51.296Z,10.60
2019-04-22T21:39:56.408Z,10.60
2019-04-22T21:42:38.755Z,10.50
2019-04-22T21:44:56.947Z,10.50
2019-04-22T21:47:41.670Z,10.50
2019-04-22T21:50:21.411Z,10.40
2019-04-22T21:52:34.989Z,10.20
2019-04-22T21:55:14.372Z,10.20
2019-04-22T21:57:52.668Z,10.10
2019-04-22T22:00:31.644Z,10.00
2019-04-22T22:02:51.832Z,10.00
2019-04-22T22:05:10.085Z,10.00
2019-04-22T22:07:32.939Z,10.00
2019-04-22T22:10:24.542Z,10.00
2019-04-22T22:12:54.805Z,9.90
2019-04-22T22:15:24.859Z,9.80
2019-04-22T22:17:52.670Z,9.70
2019-04-22T22:20:24.008Z,9.60
2019-04-22T22:23:00.546Z,9.70
2019-04-22T22:25:30.236Z,9.70
2019-04-22T22:28:00.944Z,9.60
2019-04-22T22:33:04.383Z,9.50
2019-04-22T22:35:29.560Z,9.40
2019-04-22T22:37:55.125Z,9.40
2019-04-22T22:40:18.132Z,9.30
2019-04-22T22:42:47.976Z,9.40
2019-04-22T22:45:26.617Z,9.30
2019-04-22T22:48:18.886Z,9.40
2019-04-22T22:50:37.494Z,9.50
2019-04-22T22:53:20.770Z,9.50
2019-04-22T22:55:39.404Z,9.60
2019-04-22T22:58:14.259Z,9.60
2019-04-22T23:00:42.812Z,9.50
2019-04-22T23:05:49.225Z,9.30
2019-04-22T23:08:17.291Z,9.30
2019-04-22T23:10:52.202Z,9.20
2019-04-22T23:13:22.170Z,9.10
2019-04-22T23:15:41.882Z,9.10
2019-04-22T23:17:56.184Z,9.10
2019-04-22T23:20:31.138Z,9.00
2019-04-22T23:23:22.463Z,9.00
2019-04-22T23:25:50.048Z,8.90
2019-04-22T23:28:30.083Z,8.70
2019-04-22T23:31:23.972Z,8.70
2019-04-22T23:34:05.873Z,8.70
2019-04-22T23:36:48.138Z,8.80
2019-04-22T23:39:27.413Z,8.70
2019-04-22T23:41:58.718Z,8.60
2019-04-22T23:44:27.267Z,8.60
2019-04-22T23:47:06.019Z,8.60
2019-04-22T23:49:32.665Z,8.60
2019-04-22T23:52:16.278Z,8.70
2019-04-22T23:54:43.604Z,8.60
2019-04-22T23:57:08.417Z,8.70
2019-04-22T23:59:50.138Z,8.70
